Time;durP1;ratioP1;P1;durP2;ratioP2;P2;SDS_P1;SDS_P2;PMS_P1;PMS_P2;Temp;Humidity;BMP_temperature;BMP_pressure;BME280_temperature;BME280_humidity;BME280_pressure;Samples;Min_cycle;Max_cycle;Signal;HPM_P1;HPM_P2
2021/11/27 00:00:56;;;;;;;11.07;2.80;;;4.30;99.90;;;;;;4999202;28;20053;-82
2021/11/27 00:03:26;;;;;;;7.13;3.30;;;4.30;99.90;;;;;;4999908;28;20615;-80
2021/11/27 00:05:56;;;;;;;9.35;2.67;;;4.30;99.90;;;;;;4981834;28;20049;-82
2021/11/27 00:08:24;;;;;;;11.40;2.90;;;4.30;99.90;;;;;;4999076;28;20046;-82
2021/11/27 00:10:55;;;;;;;5.47;3.15;;;4.30;99.90;;;;;;5004716;28;20064;-82
2021/11/27 00:13:23;;;;;;;8.07;3.80;;;5.10;99.90;;;;;;4997619;28;20045;-81
2021/11/27 00:15:52;;;;;;;13.65;2.38;;;4.30;99.90;;;;;;5000732;28;20057;-81
2021/11/27 00:18:21;;;;;;;5.65;2.85;;;4.30;99.90;;;;;;4994970;28;20046;-82
2021/11/27 00:20:54;;;;;;;4.22;2.33;;;4.30;99.90;;;;;;4998246;28;20050;-82
2021/11/27 00:23:23;;;;;;;4.85;2.25;;;4.30;99.90;;;;;;4997168;28;20050;-82
2021/11/27 00:25:53;;;;;;;16.98;3.25;;;4.50;99.90;;;;;;4996057;28;20062;-85
2021/11/27 00:28:22;;;;;;;2.67;2.08;;;4.20;99.90;;;;;;4995900;28;20046;-82
2021/11/27 00:30:55;;;;;;;3.58;2.28;;;4.10;99.90;;;;;;4993196;28;20050;-84
2021/11/27 00:33:25;;;;;;;7.15;1.92;;;4.10;99.90;;;;;;4989942;28;20039;-83
2021/11/27 00:35:55;;;;;;;16.70;2.97;;;5.00;99.90;;;;;;4993667;28;20073;-84
2021/11/27 00:38:25;;;;;;;5.53;2.00;;;4.00;99.90;;;;;;4995332;28;20038;-83
2021/11/27 00:40:53;;;;;;;3.13;2.00;;;4.00;99.90;;;;;;4988559;28;20050;-82
2021/11/27 00:43:22;;;;;;;9.50;3.15;;;4.00;99.90;;;;;;4990665;28;20384;-83
2021/11/27 00:45:50;;;;;;;3.13;2.33;;;3.90;99.90;;;;;;4984786;28;20069;-84
2021/11/27 00:48:19;;;;;;;9.82;2.90;;;3.90;99.90;;;;;;4988569;28;20398;-87
2021/11/27 00:50:53;;;;;;;3.63;3.13;;;4.90;99.90;;;;;;4990875;28;20854;-85
2021/11/27 00:53:22;;;;;;;6.13;1.95;;;3.80;99.90;;;;;;4973889;28;20081;-87
2021/11/27 00:55:50;;;;;;;6.18;3.25;;;3.80;99.90;;;;;;4956884;28;20051;-84
2021/11/27 00:58:18;;;;;;;3.20;2.38;;;4.80;99.90;;;;;;4999216;28;20069;-85
2021/11/27 01:01:06;;;;;;;12.48;3.30;;;4.10;99.90;;;;;;4992475;28;20058;-83
2021/11/27 01:03:37;;;;;;;6.43;2.72;;;3.80;99.90;;;;;;5004482;28;20050;-84
2021/11/27 01:06:08;;;;;;;6.28;2.00;;;5.40;99.90;;;;;;4973065;28;20497;-86
2021/11/27 01:08:36;;;;;;;;;;;3.80;99.90;;;;;;4976378;28;20057;-84
2021/11/27 01:11:18;;;;;;;4.03;1.50;;;3.80;99.90;;;;;;4974997;28;19932;-84
2021/11/27 01:13:49;;;;;;;9.07;2.25;;;3.80;99.90;;;;;;4988432;28;20077;-84
2021/11/27 01:16:18;;;;;;;6.75;2.20;;;3.70;99.90;;;;;;5005161;28;20240;-85
2021/11/27 01:18:48;;;;;;;6.75;2.80;;;3.70;99.90;;;;;;4975767;28;20053;-84
2021/11/27 01:21:19;;;;;;;3.38;2.33;;;3.70;99.90;;;;;;4989535;28;20058;-85
2021/11/27 01:23:48;;;;;;;10.25;2.88;;;3.80;99.90;;;;;;5012452;28;20043;-86
2021/11/27 01:26:17;;;;;;;6.97;2.40;;;3.80;99.90;;;;;;5001964;28;20057;-85
2021/11/27 01:28:45;;;;;;;2.80;1.77;;;3.70;99.90;;;;;;4977298;28;20046;-85
2021/11/27 01:31:14;;;;;;;4.65;2.13;;;3.70;99.90;;;;;;5025681;28;20049;-88
2021/11/27 01:33:41;;;;;;;2.90;1.77;;;3.70;99.90;;;;;;4989101;28;20042;-86
2021/11/27 01:36:09;;;;;;;7.72;2.05;;;4.40;99.90;;;;;;4999477;28;20061;-85
2021/11/27 01:38:37;;;;;;;6.55;1.73;;;3.70;99.90;;;;;;5006397;28;20026;-83
2021/11/27 01:41:06;;;;;;;1.63;1.52;;;3.70;99.90;;;;;;5007749;28;20110;-84
2021/11/27 01:43:39;;;;;;;3.10;2.30;;;3.60;99.90;;;;;;5010534;28;20422;-85
2021/11/27 01:46:07;;;;;;;2.28;2.05;;;3.60;99.90;;;;;;4987215;28;20059;-88
2021/11/27 01:48:36;;;;;;;3.00;1.75;;;3.50;99.90;;;;;;4971608;28;20043;-83
2021/11/27 01:51:13;;;;;;;7.88;2.17;;;3.60;99.90;;;;;;4986190;28;20058;-84
2021/11/27 01:53:43;;;;;;;5.38;1.45;;;3.50;99.90;;;;;;4971448;28;20138;-85
2021/11/27 01:56:16;;;;;;;5.85;1.88;;;3.50;99.90;;;;;;4984752;28;20936;-86
2021/11/27 01:58:45;;;;;;;4.60;1.88;;;3.50;99.90;;;;;;4953966;28;20057;-87
2021/11/27 02:01:18;;;;;;;2.63;1.48;;;3.50;99.90;;;;;;4974596;28;20050;-83
2021/11/27 02:03:48;;;;;;;5.28;1.92;;;4.10;99.90;;;;;;4965044;28;20494;-85
2021/11/27 02:06:23;;;;;;;2.35;2.25;;;3.40;99.90;;;;;;4969404;28;20051;-85
2021/11/27 02:08:54;;;;;;;3.80;1.65;;;3.50;99.90;;;;;;4993035;28;20050;-85
2021/11/27 02:11:27;;;;;;;2.65;1.48;;;3.50;99.90;;;;;;5007939;28;20727;-85
2021/11/27 02:13:55;;;;;;;1.73;1.38;;;4.90;99.90;;;;;;4976932;28;20058;-88
2021/11/27 02:16:24;;;;;;;1.60;1.50;;;3.40;99.90;;;;;;4972356;28;20038;-84
2021/11/27 02:18:54;;;;;;;1.15;1.05;;;4.00;99.90;;;;;;4971940;28;20055;-87
2021/11/27 02:21:23;;;;;;;3.47;1.70;;;3.70;99.90;;;;;;4955697;28;20061;-85
2021/11/27 02:23:53;;;;;;;1.40;1.30;;;3.50;99.90;;;;;;4997142;28;20057;-86
2021/11/27 02:26:28;;;;;;;2.00;1.90;;;3.40;99.90;;;;;;5007832;28;20042;-83
2021/11/27 02:29:20;;;;;;;1.48;1.38;;;3.90;99.90;;;;;;4990605;28;20491;-86
2021/11/27 02:31:49;;;;;;;1.67;1.58;;;3.40;99.90;;;;;;4991185;28;20050;-85
2021/11/27 02:34:18;;;;;;;2.00;1.63;;;3.40;99.90;;;;;;4982745;28;20053;-84
2021/11/27 02:36:53;;;;;;;2.33;1.55;;;3.60;99.90;;;;;;4970405;28;20398;-84
2021/11/27 02:39:23;;;;;;;2.80;1.60;;;3.50;99.90;;;;;;4986777;28;20043;-86
2021/11/27 02:41:53;;;;;;;8.38;1.90;;;3.50;99.90;;;;;;4993936;28;20059;-85
2021/11/27 02:44:27;;;;;;;2.13;1.50;;;4.60;99.90;;;;;;4975116;28;20058;-85
2021/11/27 02:46:56;;;;;;;4.72;2.15;;;3.60;99.90;;;;;;5010421;28;20607;-86
2021/11/27 02:49:24;;;;;;;2.35;1.90;;;5.00;99.90;;;;;;4974266;28;20545;-85
2021/11/27 02:51:52;;;;;;;8.20;2.03;;;3.70;99.90;;;;;;4995982;28;20058;-87
2021/11/27 02:54:21;;;;;;;2.70;1.80;;;3.70;99.90;;;;;;5001021;28;20047;-86
2021/11/27 02:56:49;;;;;;;3.83;2.35;;;3.70;99.90;;;;;;4973943;28;20050;-85
2021/11/27 02:59:20;;;;;;;2.30;2.13;;;3.70;99.90;;;;;;4993438;28;20046;-86
2021/11/27 03:01:56;;;;;;;1.75;1.65;;;3.70;99.90;;;;;;4960027;28;20077;-89
2021/11/27 03:04:29;;;;;;;3.08;2.25;;;3.70;99.90;;;;;;4976211;28;20057;-85
2021/11/27 03:06:57;;;;;;;3.28;2.45;;;3.70;99.90;;;;;;5009112;28;20069;-86
2021/11/27 03:09:26;;;;;;;3.47;1.85;;;5.20;99.90;;;;;;4976633;28;20046;-86
2021/11/27 03:11:56;;;;;;;5.90;3.00;;;3.70;99.90;;;;;;4976064;28;20073;-88
2021/11/27 03:14:27;;;;;;;4.35;3.13;;;3.80;99.90;;;;;;4992480;28;20050;-87
2021/11/27 03:16:57;;;;;;;3.00;2.45;;;4.00;99.90;;;;;;4971788;28;20053;-88
2021/11/27 03:19:30;;;;;;;2.45;2.15;;;3.90;99.90;;;;;;4993412;28;20046;-84
2021/11/27 03:21:58;;;;;;;2.27;2.07;;;3.70;99.90;;;;;;5000999;28;20054;-85
2021/11/27 03:24:31;;;;;;;3.50;2.47;;;3.80;99.90;;;;;;4992816;28;20046;-88
2021/11/27 03:27:00;;;;;;;2.55;1.95;;;3.70;99.90;;;;;;4976976;28;20563;-86
2021/11/27 03:29:30;;;;;;;2.13;1.92;;;5.30;99.90;;;;;;5009035;28;20054;-87
2021/11/27 03:32:02;;;;;;;2.35;2.15;;;3.70;99.90;;;;;;4997998;28;20050;-86
2021/11/27 03:34:54;;;;;;;2.75;2.30;;;3.90;99.90;;;;;;4991568;28;20929;-85
2021/11/27 03:37:27;;;;;;;3.10;2.10;;;3.60;99.90;;;;;;4982317;28;20054;-89
2021/11/27 03:39:55;;;;;;;5.30;1.88;;;3.60;99.90;;;;;;4996901;28;20046;-86
2021/11/27 03:42:23;;;;;;;2.22;1.80;;;3.50;99.90;;;;;;4977071;28;20061;-86
2021/11/27 03:44:52;;;;;;;2.20;2.00;;;3.90;99.90;;;;;;4990055;28;20051;-89
2021/11/27 03:47:20;;;;;;;2.00;1.90;;;3.40;99.90;;;;;;4991704;28;20060;-85
2021/11/27 03:49:48;;;;;;;3.45;2.28;;;4.20;99.90;;;;;;4953698;28;20047;-85
2021/11/27 03:52:15;;;;;;;2.80;2.40;;;3.30;99.90;;;;;;4987381;28;20050;-84
2021/11/27 03:54:46;;;;;;;2.58;2.10;;;3.30;99.90;;;;;;5007113;28;20061;-85
2021/11/27 03:57:14;;;;;;;2.17;2.00;;;4.10;99.90;;;;;;4987651;28;20054;-85
2021/11/27 03:59:43;;;;;;;2.65;2.45;;;3.10;99.90;;;;;;5008162;28;20422;-86
2021/11/27 04:02:13;;;;;;;2.83;2.45;;;4.60;99.90;;;;;;4974975;28;20050;-88
2021/11/27 04:04:42;;;;;;;2.42;2.22;;;3.40;99.90;;;;;;4973008;28;20051;-87
2021/11/27 04:07:11;;;;;;;2.38;2.08;;;3.00;99.90;;;;;;4998593;28;20050;-84
2021/11/27 04:09:41;;;;;;;4.63;2.05;;;3.00;99.90;;;;;;5004915;28;20042;-83
2021/11/27 04:12:09;;;;;;;5.25;2.58;;;2.90;99.90;;;;;;4988168;28;20050;-84
2021/11/27 04:14:44;;;;;;;4.38;2.63;;;2.90;99.90;;;;;;4955553;28;20077;-84
2021/11/27 04:17:12;;;;;;;2.85;2.28;;;4.40;99.90;;;;;;4978987;28;20073;-85
2021/11/27 04:19:42;;;;;;;3.78;2.67;;;2.80;99.90;;;;;;5008792;28;20054;-84
2021/11/27 04:22:10;;;;;;;3.88;2.45;;;2.70;99.90;;;;;;5007350;28;20050;-83
2021/11/27 04:24:48;;;;;;;2.92;2.40;;;2.70;99.90;;;;;;4959086;28;20127;-90
2021/11/27 04:27:16;;;;;;;4.15;2.72;;;2.60;99.90;;;;;;4996513;28;20050;-87
2021/11/27 04:29:44;;;;;;;4.60;2.90;;;2.60;99.90;;;;;;4977818;28;20398;-89
2021/11/27 04:32:12;;;;;;;5.15;3.03;;;2.50;99.90;;;;;;5005630;28;20080;-85
2021/11/27 04:34:50;;;;;;;5.35;3.28;;;2.50;99.90;;;;;;4995672;28;20046;-91
2021/11/27 04:37:19;;;;;;;4.55;2.72;;;3.20;99.90;;;;;;4991320;28;20054;-84
2021/11/27 04:39:47;;;;;;;8.15;4.30;;;2.80;99.90;;;;;;5003920;28;20567;-89
2021/11/27 04:42:15;;;;;;;10.27;4.32;;;3.20;99.90;;;;;;4998198;28;20065;-85
2021/11/27 04:44:44;;;;;;;6.13;3.83;;;3.80;99.90;;;;;;4995320;28;20057;-92
2021/11/27 04:47:13;;;;;;;4.75;3.25;;;2.60;99.90;;;;;;4984309;28;20050;-90
2021/11/27 04:49:41;;;;;;;8.60;3.83;;;2.60;99.90;;;;;;5014739;28;20033;-90
2021/11/27 04:52:11;;;;;;;8.40;4.15;;;2.70;99.90;;;;;;4996650;28;20035;-86
2021/11/27 04:54:39;;;;;;;7.03;4.15;;;2.70;99.90;;;;;;4993521;28;20057;-86
2021/11/27 04:57:07;;;;;;;7.75;4.32;;;3.20;99.90;;;;;;4992223;28;20053;-87
2021/11/27 04:59:36;;;;;;;27.65;4.45;;;2.70;99.90;;;;;;4990642;28;20054;-84
2021/11/27 05:02:04;;;;;;;7.25;3.75;;;2.60;99.90;;;;;;5007100;28;20050;-86
2021/11/27 05:04:32;;;;;;;8.98;4.75;;;2.80;99.90;;;;;;5006863;28;20053;-85
2021/11/27 05:07:02;;;;;;;9.65;4.35;;;4.00;99.90;;;;;;4955406;28;21594;-84
2021/11/27 05:09:30;;;;;;;5.53;4.30;;;2.80;99.90;;;;;;4986604;28;20518;-85
2021/11/27 05:11:58;;;;;;;8.43;3.85;;;3.10;99.90;;;;;;4987846;28;20058;-83
2021/11/27 05:14:27;;;;;;;8.50;4.07;;;2.90;99.90;;;;;;4972511;28;20058;-84
2021/11/27 05:16:55;;;;;;;9.23;4.55;;;2.90;99.90;;;;;;4988653;28;20042;-84
2021/11/27 05:19:23;;;;;;;5.22;3.67;;;2.90;99.90;;;;;;4973265;28;20070;-85
2021/11/27 05:21:56;;;;;;;8.05;3.70;;;2.90;99.90;;;;;;4989565;28;20061;-86
2021/11/27 05:24:25;;;;;;;7.90;4.10;;;3.00;99.90;;;;;;4973099;28;20053;-84
2021/11/27 05:27:16;;;;;;;11.82;4.00;;;3.00;99.90;;;;;;4990127;28;20038;-84
2021/11/27 05:30:07;;;;;;;7.18;3.97;;;3.00;99.90;;;;;;4990665;28;20081;-87
2021/11/27 05:33:06;;;;;;;9.35;4.28;;;3.00;99.90;;;;;;4994920;28;20072;-85
2021/11/27 05:35:39;;;;;;;10.15;4.15;;;3.10;99.90;;;;;;4956124;28;20047;-86
2021/11/27 05:38:09;;;;;;;7.30;3.83;;;3.00;99.90;;;;;;4972042;28;20069;-84
2021/11/27 05:40:37;;;;;;;8.60;4.63;;;4.40;99.90;;;;;;4988142;28;20042;-84
2021/11/27 05:43:07;;;;;;;8.88;4.30;;;3.00;99.90;;;;;;4963020;28;20054;-85
2021/11/27 05:45:37;;;;;;;7.60;3.88;;;3.00;99.90;;;;;;5011302;28;20084;-84
2021/11/27 05:48:05;;;;;;;11.15;4.65;;;3.60;99.90;;;;;;5005413;28;20051;-88
2021/11/27 05:50:51;;;;;;;9.27;4.68;;;3.00;99.90;;;;;;5005449;28;20034;-84
2021/11/27 05:53:19;;;;;;;6.60;3.88;;;3.00;99.90;;;;;;5005977;28;20050;-84
2021/11/27 05:55:48;;;;;;;8.90;4.68;;;4.00;99.90;;;;;;4997056;28;20055;-85
2021/11/27 05:58:18;;;;;;;8.25;3.92;;;3.10;99.90;;;;;;5016795;28;20054;-83
2021/11/27 06:00:47;;;;;;;11.13;4.97;;;3.00;99.90;;;;;;5001091;28;20127;-84
2021/11/27 06:03:15;;;;;;;9.35;6.05;;;3.00;99.90;;;;;;5017017;28;20058;-84
2021/11/27 06:05:43;;;;;;;9.55;4.78;;;4.50;99.90;;;;;;5012489;28;20046;-84
2021/11/27 06:08:11;;;;;;;12.65;6.22;;;3.00;99.90;;;;;;4986540;28;20627;-84
2021/11/27 06:10:38;;;;;;;8.68;3.85;;;3.10;99.90;;;;;;4997849;28;20038;-85
2021/11/27 06:13:06;;;;;;;9.50;4.75;;;3.10;99.90;;;;;;5006323;28;20508;-85
2021/11/27 06:15:34;;;;;;;7.72;4.88;;;3.10;99.90;;;;;;4959084;28;20053;-84
2021/11/27 06:18:02;;;;;;;11.07;4.45;;;4.20;99.90;;;;;;4975694;28;20089;-83
2021/11/27 06:20:31;;;;;;;8.30;4.50;;;3.10;99.90;;;;;;4994483;28;20042;-84
2021/11/27 06:22:59;;;;;;;9.15;4.65;;;3.20;99.90;;;;;;4975227;28;20085;-84
2021/11/27 06:25:28;;;;;;;10.30;5.63;;;3.40;99.90;;;;;;5006551;28;20053;-86
2021/11/27 06:27:56;;;;;;;8.75;5.40;;;4.30;99.90;;;;;;5006598;28;20049;-84
2021/11/27 06:30:24;;;;;;;9.95;4.18;;;4.00;99.90;;;;;;5006990;28;20057;-83
2021/11/27 06:32:52;;;;;;;8.63;5.45;;;3.20;99.90;;;;;;4991508;28;20054;-84
2021/11/27 06:35:20;;;;;;;9.60;4.50;;;3.20;99.90;;;;;;5006946;28;20635;-84
2021/11/27 06:37:48;;;;;;;8.25;4.60;;;3.20;99.90;;;;;;5005717;28;20054;-83
2021/11/27 06:40:15;;;;;;;12.52;5.18;;;4.40;99.90;;;;;;4983661;28;20058;-83
2021/11/27 06:43:06;;;;;;;8.60;5.13;;;3.20;99.90;;;;;;4999129;28;20064;-85
2021/11/27 06:45:56;;;;;;;5.28;4.13;;;3.10;99.90;;;;;;5011506;28;20049;-86
2021/11/27 06:48:24;;;;;;;7.70;4.30;;;3.10;99.90;;;;;;4980753;28;20046;-85
2021/11/27 06:50:52;;;;;;;8.98;5.07;;;3.10;99.90;;;;;;5008901;28;20078;-85
2021/11/27 06:53:20;;;;;;;11.90;6.57;;;3.10;99.90;;;;;;4959187;28;20069;-83
2021/11/27 06:55:47;;;;;;;6.72;4.65;;;3.00;99.90;;;;;;4959390;28;20050;-85
2021/11/27 06:58:16;;;;;;;13.02;6.20;;;3.00;99.90;;;;;;4993172;28;20065;-83
2021/11/27 07:01:23;;;;;;;12.02;5.88;;;3.00;99.90;;;;;;4926322;29;20055;-83
2021/11/27 07:04:08;;;;;;;8.98;5.07;;;2.90;99.90;;;;;;4998385;28;20050;-84
2021/11/27 07:06:55;;;;;;;11.50;4.97;;;2.90;99.90;;;;;;5000318;28;20046;-84
2021/11/27 07:09:47;;;;;;;9.85;4.90;;;2.90;99.90;;;;;;4977147;28;20064;-82
2021/11/27 07:12:33;;;;;;;10.00;5.32;;;2.90;99.90;;;;;;5010498;28;20065;-84
2021/11/27 07:15:03;;;;;;;10.05;5.38;;;2.90;99.90;;;;;;4996321;28;20051;-82
2021/11/27 07:17:31;;;;;;;10.43;5.43;;;2.90;99.90;;;;;;5009106;28;20062;-83
2021/11/27 07:20:01;;;;;;;13.65;5.35;;;3.80;99.90;;;;;;5013351;28;20046;-83
2021/11/27 07:22:29;;;;;;;14.13;5.50;;;2.90;99.90;;;;;;5013696;28;20050;-83
2021/11/27 07:24:57;;;;;;;13.05;4.93;;;3.00;99.90;;;;;;5013862;28;20061;-85
2021/11/27 07:27:36;;;;;;;8.73;5.40;;;3.00;99.90;;;;;;4975403;28;20046;-84
2021/11/27 07:30:06;;;;;;;8.80;5.82;;;3.00;99.90;;;;;;4959314;28;20057;-83
2021/11/27 07:32:34;;;;;;;15.55;5.18;;;3.00;99.90;;;;;;5005870;28;20046;-84
2021/11/27 07:35:03;;;;;;;14.63;7.00;;;3.00;99.90;;;;;;4994851;28;20046;-83
2021/11/27 07:37:30;;;;;;;12.70;5.03;;;3.00;99.90;;;;;;4992508;28;20501;-83
2021/11/27 07:40:00;;;;;;;12.10;6.68;;;3.30;99.90;;;;;;4991314;28;20039;-84
2021/11/27 07:42:32;;;;;;;9.95;5.60;;;3.00;99.90;;;;;;5000046;28;20062;-84
2021/11/27 07:45:46;;;;;;;8.98;5.20;;;3.00;99.90;;;;;;5012889;28;20031;-84
2021/11/27 07:48:32;;;;;;;14.13;5.90;;;3.10;99.90;;;;;;4987497;28;20058;-83
2021/11/27 07:51:26;;;;;;;7.47;4.97;;;3.90;99.90;;;;;;5002528;28;20046;-84
2021/11/27 07:53:57;;;;;;;6.50;4.47;;;3.10;99.90;;;;;;4990274;28;20065;-85
2021/11/27 07:56:25;;;;;;;10.90;4.47;;;3.10;99.90;;;;;;4988868;28;20042;-85
2021/11/27 07:58:53;;;;;;;10.70;6.88;;;3.80;99.90;;;;;;4989634;28;20051;-84
2021/11/27 08:01:21;;;;;;;7.88;4.60;;;4.60;99.90;;;;;;4988691;28;20062;-87
2021/11/27 08:03:49;;;;;;;10.45;5.47;;;3.10;99.90;;;;;;5005706;28;20066;-84
2021/11/27 08:06:17;;;;;;;7.55;4.18;;;3.20;99.90;;;;;;4974077;28;20061;-84
2021/11/27 08:08:45;;;;;;;8.70;5.43;;;3.80;99.90;;;;;;4986048;28;20066;-85
2021/11/27 08:11:14;;;;;;;9.07;6.00;;;3.20;99.90;;;;;;4971974;28;20069;-88
2021/11/27 08:13:43;;;;;;;8.93;4.53;;;3.30;99.90;;;;;;4972599;28;20042;-84
2021/11/27 08:16:12;;;;;;;15.98;5.80;;;3.30;99.90;;;;;;4972150;28;20050;-83
2021/11/27 08:18:39;;;;;;;10.65;5.95;;;3.40;99.90;;;;;;4990956;28;20062;-85
2021/11/27 08:21:07;;;;;;;10.07;5.47;;;4.00;99.90;;;;;;4972156;28;20054;-84
2021/11/27 08:23:49;;;;;;;8.45;4.82;;;3.40;99.90;;;;;;4986312;28;20374;-84
2021/11/27 08:26:17;;;;;;;10.48;5.35;;;3.50;99.90;;;;;;4977026;28;20437;-84
2021/11/27 08:28:45;;;;;;;10.18;5.55;;;3.50;99.90;;;;;;4994784;28;20050;-86
2021/11/27 08:31:15;;;;;;;7.53;4.68;;;3.60;99.90;;;;;;5005937;28;20051;-84
2021/11/27 08:33:45;;;;;;;;;;;3.70;99.90;;;;;;4987499;28;20050;-85
2021/11/27 08:36:13;;;;;;;11.23;6.35;;;3.60;99.90;;;;;;4972605;28;19925;-84
2021/11/27 08:38:42;;;;;;;9.02;4.40;;;3.60;99.90;;;;;;4971918;28;20053;-84
2021/11/27 08:41:09;;;;;;;12.45;6.07;;;3.70;99.90;;;;;;4990486;28;20053;-85
2021/11/27 08:43:38;;;;;;;10.02;4.45;;;3.70;99.90;;;;;;4990596;28;20532;-85
2021/11/27 08:46:06;;;;;;;9.40;4.07;;;3.70;99.90;;;;;;4990169;28;20402;-83
2021/11/27 08:48:36;;;;;;;8.82;4.20;;;3.90;99.90;;;;;;4974555;28;20055;-84
2021/11/27 08:51:08;;;;;;;7.40;4.18;;;3.80;99.90;;;;;;4973722;28;20049;-84
2021/11/27 08:53:37;;;;;;;7.63;4.20;;;3.90;99.90;;;;;;4989552;28;20042;-85
2021/11/27 08:56:07;;;;;;;6.40;3.65;;;4.00;99.90;;;;;;5002069;28;20042;-85
2021/11/27 08:58:36;;;;;;;5.30;2.90;;;4.00;99.90;;;;;;4993030;28;20042;-84
2021/11/27 09:01:06;;;;;;;11.55;3.97;;;4.00;99.90;;;;;;4993392;28;20051;-85
2021/11/27 09:03:35;;;;;;;5.43;3.70;;;4.10;99.90;;;;;;4995377;28;20489;-84
2021/11/27 09:06:04;;;;;;;12.52;3.35;;;4.10;99.90;;;;;;4975319;28;20061;-84
2021/11/27 09:08:37;;;;;;;5.82;3.17;;;4.10;99.90;;;;;;5009156;28;20042;-84
2021/11/27 09:11:07;;;;;;;8.82;3.25;;;4.20;99.90;;;;;;5006824;28;20413;-85
2021/11/27 09:13:36;;;;;;;9.38;3.22;;;4.20;99.90;;;;;;5009262;28;20394;-86
2021/11/27 09:16:05;;;;;;;4.82;2.97;;;4.20;99.90;;;;;;5010770;28;20080;-85
2021/11/27 09:18:52;;;;;;;6.38;2.70;;;4.30;99.90;;;;;;5012075;28;20462;-86
2021/11/27 09:21:20;;;;;;;7.75;3.13;;;4.30;99.90;;;;;;4998909;28;20046;-88
2021/11/27 09:23:48;;;;;;;7.03;3.33;;;4.30;99.90;;;;;;5008009;28;20046;-87
2021/11/27 09:26:15;;;;;;;4.68;3.15;;;4.30;99.90;;;;;;4979409;28;20050;-87
2021/11/27 09:28:43;;;;;;;5.80;2.75;;;4.30;99.90;;;;;;4996202;28;20049;-85
2021/11/27 09:31:11;;;;;;;10.13;3.25;;;4.30;99.90;;;;;;4998661;28;20046;-84
2021/11/27 09:33:39;;;;;;;10.25;3.35;;;4.30;99.90;;;;;;5003708;28;20050;-83
2021/11/27 09:36:09;;;;;;;6.55;3.10;;;4.20;99.90;;;;;;5005450;28;20497;-83
2021/11/27 09:38:39;;;;;;;7.50;4.05;;;4.20;99.90;;;;;;5019002;28;20030;-84
2021/11/27 09:41:12;;;;;;;7.60;3.10;;;4.20;99.90;;;;;;5001833;28;20065;-84
2021/11/27 09:43:43;;;;;;;4.05;3.35;;;4.20;99.90;;;;;;5023083;28;20034;-84
2021/11/27 09:46:13;;;;;;;8.25;2.85;;;4.30;99.90;;;;;;4995334;28;20054;-84
2021/11/27 09:48:46;;;;;;;7.13;3.20;;;4.30;99.90;;;;;;4995043;28;20046;-86
2021/11/27 09:51:15;;;;;;;5.22;2.90;;;5.00;99.90;;;;;;5024597;28;20054;-86
2021/11/27 09:53:45;;;;;;;7.10;2.83;;;4.50;99.90;;;;;;4985393;28;20458;-84
2021/11/27 09:56:19;;;;;;;4.75;2.95;;;4.60;99.90;;;;;;5017594;28;20050;-83
2021/11/27 09:58:47;;;;;;;10.97;4.03;;;4.60;99.90;;;;;;4970508;28;20050;-83
2021/11/27 10:01:17;;;;;;;4.03;2.22;;;5.10;99.90;;;;;;4985208;28;20061;-84
2021/11/27 10:03:59;;;;;;;5.32;2.97;;;4.80;99.90;;;;;;4996041;28;20054;-83
2021/11/27 10:06:29;;;;;;;4.60;2.72;;;4.90;99.90;;;;;;4982479;28;20042;-83
2021/11/27 10:09:01;;;;;;;7.95;3.17;;;5.10;99.90;;;;;;4999682;28;20057;-82
2021/11/27 10:11:29;;;;;;;6.75;3.95;;;5.20;99.90;;;;;;4995662;28;20054;-83
2021/11/27 10:13:56;;;;;;;3.92;2.47;;;5.80;99.90;;;;;;5016681;28;20046;-83
2021/11/27 10:16:25;;;;;;;8.77;3.80;;;5.50;99.90;;;;;;5022433;28;20050;-84
2021/11/27 10:19:05;;;;;;;10.40;3.70;;;5.60;99.90;;;;;;5019990;28;20046;-83
2021/11/27 10:21:33;;;;;;;10.70;2.72;;;5.60;99.90;;;;;;5016877;28;20066;-84
2021/11/27 10:24:16;;;;;;;7.82;4.03;;;6.70;99.90;;;;;;5022303;28;20050;-82
2021/11/27 10:26:45;;;;;;;4.45;3.25;;;5.70;99.90;;;;;;4987142;28;20050;-87
2021/11/27 10:29:26;;;;;;;9.88;3.78;;;5.70;99.90;;;;;;4999583;28;20058;-84
2021/11/27 10:32:08;;;;;;;4.78;3.38;;;5.70;99.90;;;;;;5006519;28;20042;-83
2021/11/27 10:34:40;;;;;;;;;;;5.70;99.90;;;;;;5001763;28;20039;-83
2021/11/27 10:37:27;;;;;;;10.90;3.20;;;5.70;99.90;;;;;;4994579;28;20013;-83
2021/11/27 10:40:11;;;;;;;3.95;2.60;;;5.70;99.90;;;;;;5018681;28;20490;-83
2021/11/27 10:42:46;;;;;;;7.18;4.90;;;6.00;99.90;;;;;;5007730;28;20048;-83
2021/11/27 10:45:20;;;;;;;8.90;4.47;;;5.60;99.90;;;;;;5026862;28;20045;-82
2021/11/27 10:47:50;;;;;;;4.10;2.85;;;5.50;99.90;;;;;;4984407;28;20062;-84
2021/11/27 10:50:24;;;;;;;4.38;3.10;;;5.50;99.90;;;;;;5001745;28;20042;-83
2021/11/27 10:52:53;;;;;;;5.95;3.10;;;5.50;99.90;;;;;;5001508;28;20053;-84
2021/11/27 10:55:24;;;;;;;8.45;3.25;;;6.80;99.90;;;;;;5011969;28;20050;-86
2021/11/27 10:57:55;;;;;;;5.00;3.08;;;5.50;99.90;;;;;;5018977;28;20044;-83
2021/11/27 11:00:29;;;;;;;;;;;5.60;99.90;;;;;;5001085;28;20050;-84
2021/11/27 11:02:58;;;;;;;3.80;2.67;;;5.60;99.90;;;;;;5002132;28;19929;-82
2021/11/27 11:05:38;;;;;;;6.88;2.85;;;5.70;99.90;;;;;;4998778;28;20130;-83
2021/11/27 11:08:08;;;;;;;7.00;3.75;;;5.70;99.90;;;;;;5007177;28;20061;-82
2021/11/27 11:10:39;;;;;;;8.57;2.88;;;6.00;99.90;;;;;;4990932;28;20073;-82
2021/11/27 11:13:22;;;;;;;11.43;3.38;;;5.80;99.90;;;;;;5013106;28;20046;-83
2021/11/27 11:15:50;;;;;;;11.02;3.15;;;5.80;99.90;;;;;;4995667;28;20060;-84
2021/11/27 11:18:26;;;;;;;4.43;3.00;;;5.90;99.90;;;;;;5010930;28;20462;-81
2021/11/27 11:21:01;;;;;;;9.68;2.92;;;5.90;99.90;;;;;;4998235;28;20045;-83
2021/11/27 11:23:43;;;;;;;9.45;5.10;;;6.00;99.90;;;;;;4988998;28;20045;-83
2021/11/27 11:26:35;;;;;;;6.72;2.72;;;6.10;99.90;;;;;;4985521;28;20046;-82
2021/11/27 11:29:03;;;;;;;13.75;2.78;;;6.20;99.90;;;;;;5025764;28;20046;-84
2021/11/27 11:31:33;;;;;;;14.00;4.75;;;6.20;99.90;;;;;;4991606;28;20042;-83
2021/11/27 11:34:07;;;;;;;10.57;2.35;;;6.30;99.90;;;;;;5011567;28;20052;-85
2021/11/27 11:36:55;;;;;;;7.80;2.30;;;6.30;99.90;;;;;;4992545;28;20049;-83
2021/11/27 11:39:25;;;;;;;4.75;2.50;;;6.30;99.90;;;;;;5011967;28;20494;-84
2021/11/27 11:41:54;;;;;;;4.22;1.75;;;6.20;99.90;;;;;;5008712;28;20042;-85
2021/11/27 11:44:22;;;;;;;3.60;2.25;;;7.30;99.90;;;;;;4987986;28;20042;-83
2021/11/27 11:46:52;;;;;;;2.70;1.98;;;6.10;99.90;;;;;;5010331;28;20068;-84
2021/11/27 11:49:21;;;;;;;3.10;1.60;;;7.50;99.90;;;;;;4995109;28;20064;-84
2021/11/27 11:52:00;;;;;;;7.22;1.73;;;6.00;99.90;;;;;;5023393;28;20057;-85
2021/11/27 11:54:29;;;;;;;1.65;1.55;;;5.90;99.90;;;;;;4990440;28;20041;-84
2021/11/27 11:57:06;;;;;;;2.40;1.52;;;5.90;99.90;;;;;;5009208;28;20057;-83
2021/11/27 11:59:37;;;;;;;5.25;2.22;;;5.80;99.90;;;;;;5005678;28;20037;-83
2021/11/27 12:02:10;;;;;;;2.25;1.77;;;5.70;99.90;;;;;;4965557;28;20051;-83
2021/11/27 12:04:57;;;;;;;2.97;1.10;;;5.70;99.90;;;;;;4999038;28;20053;-84
2021/11/27 12:08:08;;;;;;;3.25;1.63;;;5.70;99.90;;;;;;4998645;28;20050;-85
2021/11/27 12:10:41;;;;;;;4.90;2.33;;;5.60;99.90;;;;;;5011347;28;20050;-84
2021/11/27 12:13:09;;;;;;;1.95;1.73;;;5.50;99.90;;;;;;5005113;28;20593;-85
2021/11/27 12:15:40;;;;;;;3.65;1.95;;;5.50;99.90;;;;;;4997416;28;20046;-86
2021/11/27 12:18:16;;;;;;;9.60;2.78;;;5.50;99.90;;;;;;4963120;28;20050;-84
2021/11/27 12:20:49;;;;;;;3.00;1.88;;;5.50;99.90;;;;;;4995992;28;20386;-85
2021/11/27 12:23:27;;;;;;;6.35;2.15;;;5.60;99.90;;;;;;4979666;28;20087;-85
2021/11/27 12:26:07;;;;;;;5.40;2.00;;;5.60;99.90;;;;;;5014586;28;20061;-85
2021/11/27 12:28:46;;;;;;;11.00;3.97;;;5.70;99.90;;;;;;4975625;28;20050;-85
2021/11/27 12:31:17;;;;;;;6.38;2.78;;;5.70;99.90;;;;;;4982668;28;20058;-85
2021/11/27 12:34:00;;;;;;;6.22;2.20;;;5.70;99.90;;;;;;5021932;28;20080;-87
2021/11/27 12:36:28;;;;;;;13.20;4.30;;;5.70;99.90;;;;;;5007481;28;20180;-86
2021/11/27 12:39:12;;;;;;;2.33;1.95;;;6.90;99.90;;;;;;5001113;28;20057;-84
2021/11/27 12:42:14;;;;;;;6.13;1.83;;;5.60;99.90;;;;;;5020839;28;21336;-87
2021/11/27 12:44:49;;;;;;;5.15;2.20;;;5.50;99.90;;;;;;5021027;28;20046;-84
2021/11/27 12:47:20;;;;;;;6.25;2.22;;;5.50;99.90;;;;;;5018440;28;20046;-87
2021/11/27 12:49:53;;;;;;;5.43;2.30;;;5.40;99.90;;;;;;4997778;28;20073;-86
2021/11/27 12:52:24;;;;;;;5.22;2.63;;;5.40;99.90;;;;;;4986577;28;20086;-84
2021/11/27 12:54:55;;;;;;;4.10;2.13;;;5.40;99.90;;;;;;4983593;28;20057;-87
2021/11/27 12:57:36;;;;;;;5.00;3.10;;;5.40;99.90;;;;;;5003110;28;20050;-86
2021/11/27 13:00:11;;;;;;;8.57;2.78;;;5.40;99.90;;;;;;5009667;28;20056;-87
2021/11/27 13:03:05;;;;;;;12.85;3.22;;;5.40;99.90;;;;;;5020080;28;20054;-84
2021/11/27 13:05:38;;;;;;;7.30;3.53;;;5.40;99.90;;;;;;5019610;28;20042;-86
2021/11/27 13:08:08;;;;;;;11.73;3.80;;;5.50;99.90;;;;;;5007479;28;20390;-85
2021/11/27 13:10:43;;;;;;;7.30;2.38;;;5.50;99.90;;;;;;5001478;28;20057;-86
2021/11/27 13:13:22;;;;;;;12.38;4.68;;;5.80;99.90;;;;;;5020788;28;20034;-88
2021/11/27 13:16:05;;;;;;;6.63;3.78;;;5.50;99.90;;;;;;5003979;28;20062;-84
2021/11/27 13:18:33;;;;;;;18.80;4.90;;;5.50;99.90;;;;;;4986405;28;20050;-91
2021/11/27 13:21:08;;;;;;;8.00;2.38;;;6.20;99.90;;;;;;4991944;28;20053;-89